createdAt,value
2022-08-17T06:37:53.177Z,21.13
2022-08-17T06:40:47.822Z,21.22
2022-08-17T06:43:45.073Z,21.52
2022-08-17T06:46:27.437Z,21.53
2022-08-17T06:49:12.842Z,21.85
2022-08-17T06:51:46.451Z,22.20
2022-08-17T06:54:28.214Z,22.71
2022-08-17T06:57:09.990Z,23.11
2022-08-17T06:59:55.116Z,23.16
2022-08-17T07:02:52.317Z,23.45
2022-08-17T07:06:21.945Z,23.60
2022-08-17T07:09:26.560Z,23.81
2022-08-17T07:12:24.656Z,24.01
2022-08-17T07:15:12.369Z,24.28
2022-08-17T07:18:16.644Z,24.75
2022-08-17T07:25:20.778Z,25.09
2022-08-17T07:28:17.786Z,25.38
2022-08-17T07:31:43.059Z,25.24
2022-08-17T07:34:16.874Z,25.84
2022-08-17T07:37:06.477Z,25.94
2022-08-17T07:40:16.347Z,26.15
2022-08-17T07:43:32.957Z,27.14
2022-08-17T07:47:04.021Z,27.58
2022-08-17T07:49:41.042Z,28.15
2022-08-17T07:52:50.464Z,28.51
2022-08-17T07:55:32.749Z,28.20
2022-08-17T07:58:19.432Z,27.95
2022-08-17T08:01:07.997Z,28.05
2022-08-17T08:03:52.650Z,28.21
2022-08-17T08:06:26.351Z,28.26
2022-08-17T08:08:57.175Z,28.32
2022-08-17T08:11:41.274Z,28.65
2022-08-17T08:14:31.154Z,29.21
2022-08-17T08:17:02.493Z,29.64
2022-08-17T08:19:33.514Z,29.84
2022-08-17T08:22:11.298Z,29.64
2022-08-17T08:25:08.323Z,29.54
2022-08-17T08:27:51.284Z,30.23
2022-08-17T08:30:23.499Z,30.46
2022-08-17T08:33:30.954Z,30.54
2022-08-17T08:36:56.938Z,30.52
2022-08-17T08:39:21.559Z,30.27
2022-08-17T08:42:07.914Z,30.20
2022-08-17T08:45:01.373Z,29.78
2022-08-17T08:48:06.830Z,29.66
2022-08-17T08:51:03.716Z,30.04
2022-08-17T08:53:47.748Z,30.26
2022-08-17T08:56:59.188Z,30.26
2022-08-17T08:59:44.611Z,30.42
2022-08-17T09:02:43.033Z,30.43
2022-08-17T09:05:33.861Z,30.43
2022-08-17T09:08:17.885Z,30.41
2022-08-17T09:11:05.568Z,30.57
2022-08-17T09:13:54.393Z,30.30
2022-08-17T09:16:33.181Z,30.48
2022-08-17T09:19:12.654Z,30.26
2022-08-17T09:21:52.582Z,30.40
2022-08-17T09:24:32.670Z,30.90
2022-08-17T09:27:09.624Z,30.93
2022-08-17T09:29:45.650Z,31.04
2022-08-17T09:32:23.218Z,31.25
2022-08-17T09:34:56.050Z,31.24
2022-08-17T09:37:36.595Z,31.44
2022-08-17T09:40:17.515Z,31.68
2022-08-17T09:42:53.393Z,31.90
2022-08-17T09:45:32.349Z,32.21
2022-08-17T09:48:09.357Z,31.72
2022-08-17T09:51:03.771Z,32.16
2022-08-17T09:53:39.623Z,32.45
2022-08-17T09:56:34.947Z,33.08
2022-08-17T09:59:38.641Z,33.00
2022-08-17T10:02:42.305Z,33.68
2022-08-17T10:05:27.495Z,34.07
2022-08-17T10:08:21.817Z,34.82
2022-08-17T10:11:20.442Z,35.63
2022-08-17T10:15:37.914Z,35.86
2022-08-17T10:18:50.352Z,36.30
2022-08-17T10:22:14.732Z,36.73
2022-08-17T10:25:48.748Z,37.08
2022-08-17T10:28:29.595Z,37.22
2022-08-17T10:31:33.081Z,36.74
2022-08-17T10:34:18.697Z,37.13
2022-08-17T10:37:00.670Z,37.13
2022-08-17T10:39:51.816Z,37.02
2022-08-17T10:42:32.239Z,37.39
2022-08-17T10:45:08.465Z,35.61
2022-08-17T10:48:05.738Z,35.85
2022-08-17T10:50:58.635Z,36.79
2022-08-17T10:53:55.884Z,37.08
2022-08-17T10:56:41.302Z,37.76
2022-08-17T10:59:10.283Z,38.42
2022-08-17T11:02:13.986Z,37.18
2022-08-17T11:05:07.948Z,37.98
2022-08-17T11:08:05.455Z,37.05
2022-08-17T11:11:07.873Z,37.55
2022-08-17T11:13:49.818Z,37.65
2022-08-17T11:16:45.610Z,37.88
2022-08-17T11:19:59.577Z,38.71
2022-08-17T11:23:06.011Z,38.33
2022-08-17T11:25:39.760Z,38.28
2022-08-17T11:28:18.124Z,37.16
2022-08-17T11:30:51.976Z,36.54
2022-08-17T11:34:00.075Z,36.37
2022-08-17T11:37:11.270Z,36.26
2022-08-17T11:40:26.873Z,36.51
2022-08-17T11:43:58.653Z,37.43
2022-08-17T11:47:09.733Z,37.98
2022-08-17T11:50:25.703Z,39.37
2022-08-17T11:52:57.745Z,40.15
2022-08-17T11:56:08.039Z,40.87
2022-08-17T11:58:41.479Z,40.18
2022-08-17T12:01:13.834Z,40.07
2022-08-17T12:03:54.242Z,40.83
2022-08-17T12:06:59.818Z,41.60
2022-08-17T12:09:39.827Z,41.55
2022-08-17T12:12:19.291Z,41.39
2022-08-17T12:15:10.037Z,41.40
2022-08-17T12:17:43.971Z,41.11
2022-08-17T12:20:32.124Z,40.64
2022-08-17T12:23:31.857Z,41.50
2022-08-17T12:26:19.688Z,40.18
2022-08-17T12:28:58.276Z,39.74
2022-08-17T12:31:44.623Z,40.67
2022-08-17T12:34:26.639Z,39.95
2022-08-17T12:37:05.957Z,40.94
2022-08-17T12:39:34.789Z,40.38
2022-08-17T12:42:05.380Z,39.09
2022-08-17T12:44:46.170Z,37.58
2022-08-17T12:47:22.715Z,37.63
2022-08-17T12:49:54.117Z,37.41
2022-08-17T12:52:26.740Z,38.41
2022-08-17T12:55:00.709Z,38.67
2022-08-17T12:57:35.473Z,39.28
2022-08-17T13:00:15.748Z,39.50
2022-08-17T13:02:49.638Z,38.95
2022-08-17T13:05:27.564Z,40.07
2022-08-17T13:07:59.581Z,41.03
2022-08-17T13:10:33.281Z,41.32
2022-08-17T13:13:06.046Z,41.86
2022-08-17T13:15:44.963Z,40.72
2022-08-17T13:18:39.822Z,40.43
2022-08-17T13:21:18.096Z,39.85
2022-08-17T13:24:00.969Z,39.37
2022-08-17T13:26:35.152Z,40.66
2022-08-17T13:29:09.324Z,40.79
2022-08-17T13:31:51.873Z,40.67
2022-08-17T13:34:42.365Z,40.69
2022-08-17T13:37:30.163Z,40.49
2022-08-17T13:40:04.411Z,40.38
2022-08-17T13:42:53.003Z,39.61
2022-08-17T13:45:53.289Z,40.24
2022-08-17T13:48:28.387Z,39.76
2022-08-17T13:51:43.286Z,40.06
2022-08-17T13:54:30.541Z,40.17
2022-08-17T13:57:03.630Z,40.44
2022-08-17T13:59:53.643Z,40.03
2022-08-17T14:02:28.520Z,38.51
2022-08-17T14:05:00.558Z,38.33
2022-08-17T14:07:36.391Z,38.17
2022-08-17T14:10:14.168Z,37.83
2022-08-17T14:12:50.148Z,37.67
2022-08-17T14:15:22.463Z,36.67
2022-08-17T14:17:53.663Z,37.46
2022-08-17T14:20:24.587Z,37.88
2022-08-17T14:22:56.662Z,37.95
2022-08-17T14:25:29.353Z,38.09
2022-08-17T14:27:58.238Z,38.05
2022-08-17T14:30:30.124Z,38.05
2022-08-17T14:33:02.122Z,37.87
2022-08-17T14:35:31.382Z,37.23
2022-08-17T14:37:59.994Z,37.47
2022-08-17T14:40:29.443Z,37.33
2022-08-17T14:42:59.246Z,36.45
2022-08-17T14:45:32.816Z,35.90
2022-08-17T14:48:05.657Z,36.31
2022-08-17T14:50:36.139Z,36.29
2022-08-17T14:53:06.698Z,36.33
2022-08-17T14:55:36.775Z,36.55
2022-08-17T14:58:05.413Z,36.81
2022-08-17T15:00:34.450Z,36.89
2022-08-17T15:03:04.479Z,36.76
2022-08-17T15:05:38.133Z,35.27
2022-08-17T15:08:08.138Z,35.04
2022-08-17T15:10:37.507Z,35.19
2022-08-17T15:13:11.488Z,35.33
2022-08-17T15:15:40.939Z,35.65
2022-08-17T15:18:10.809Z,35.21
2022-08-17T15:20:39.708Z,35.60
2022-08-17T15:23:09.616Z,35.73
2022-08-17T15:25:38.031Z,35.79
2022-08-17T15:28:07.369Z,35.82
2022-08-17T15:30:36.334Z,35.24
2022-08-17T15:33:05.542Z,35.34
2022-08-17T15:35:35.992Z,35.02
2022-08-17T15:38:12.149Z,35.32
2022-08-17T15:40:44.645Z,35.23
2022-08-17T15:43:17.467Z,35.19
2022-08-17T15:45:59.863Z,35.32
2022-08-17T15:48:41.303Z,35.07
2022-08-17T15:51:14.754Z,35.05
2022-08-17T15:53:46.457Z,35.09
2022-08-17T15:56:16.346Z,35.10
2022-08-17T15:58:47.633Z,35.16
2022-08-17T16:02:16.308Z,35.32
2022-08-17T16:04:26.704Z,35.47
2022-08-17T16:06:58.910Z,35.47
2022-08-17T16:09:27.615Z,35.12
2022-08-17T16:11:56.533Z,35.63
2022-08-17T16:14:32.401Z,36.03
2022-08-17T16:17:04.622Z,36.09
2022-08-17T16:19:34.325Z,35.98
2022-08-17T16:22:06.651Z,35.07
2022-08-17T16:24:37.532Z,35.17
2022-08-17T16:27:12.631Z,35.17
2022-08-17T16:29:42.387Z,34.83
2022-08-17T16:32:31.455Z,34.70
2022-08-17T16:35:04.194Z,34.33
2022-08-17T16:37:35.039Z,33.99
2022-08-17T16:40:06.815Z,33.96
2022-08-17T16:42:39.490Z,34.04
2022-08-17T16:45:13.030Z,34.02
2022-08-17T16:47:42.410Z,33.89
2022-08-17T16:50:20.476Z,33.88
2022-08-17T16:52:51.617Z,33.76
2022-08-17T16:55:22.919Z,33.73
2022-08-17T16:57:51.369Z,33.67
2022-08-17T17:00:20.925Z,33.53
2022-08-17T17:02:50.768Z,33.44
2022-08-17T17:05:42.305Z,33.37
2022-08-17T17:08:21.296Z,33.20
2022-08-17T17:10:52.614Z,33.03
2022-08-17T17:13:32.214Z,32.88
2022-08-17T17:16:18.204Z,32.65
2022-08-17T17:19:04.572Z,32.51
2022-08-17T17:21:44.696Z,32.37
2022-08-17T17:24:26.070Z,32.25
2022-08-17T17:27:21.875Z,32.08
2022-08-17T17:30:07.525Z,31.90
2022-08-17T17:32:42.447Z,31.71
2022-08-17T17:35:20.393Z,31.60
2022-08-17T17:37:51.157Z,31.53
2022-08-17T17:40:26.159Z,31.42
2022-08-17T17:43:14.369Z,31.31
2022-08-17T17:45:56.996Z,31.22
2022-08-17T17:48:29.233Z,31.11
2022-08-17T17:51:11.857Z,30.92
2022-08-17T17:54:02.186Z,30.72
2022-08-17T17:56:44.031Z,30.46
2022-08-17T17:59:24.590Z,30.21
2022-08-17T18:02:05.490Z,29.89
2022-08-17T18:04:48.331Z,29.59
2022-08-17T18:07:30.260Z,29.46
2022-08-17T18:10:29.815Z,29.35
2022-08-17T18:13:13.017Z,29.33
2022-08-17T18:15:51.336Z,29.24
2022-08-17T18:18:38.581Z,29.25
2022-08-17T18:21:16.777Z,28.98
2022-08-17T18:23:56.112Z,28.74
2022-08-17T18:26:42.050Z,28.46
2022-08-17T18:29:32.167Z,28.27
2022-08-17T18:32:43.710Z,27.97
2022-08-17T18:35:32.558Z,27.78
2022-08-17T18:38:29.581Z,27.66
2022-08-17T18:41:06.918Z,27.55
2022-08-17T18:43:52.993Z,27.34
2022-08-17T18:46:33.167Z,27.20
2022-08-17T18:49:07.462Z,27.00
2022-08-17T18:51:41.905Z,26.81
2022-08-17T18:54:23.086Z,26.64
2022-08-17T18:56:57.970Z,26.54
2022-08-17T18:59:40.794Z,26.45
2022-08-17T19:02:44.111Z,26.36
2022-08-17T19:05:28.679Z,26.53
2022-08-17T19:08:22.446Z,26.57
2022-08-17T19:10:56.631Z,26.49
2022-08-17T19:13:33.023Z,26.46
2022-08-17T19:16:14.643Z,26.55
2022-08-17T19:18:52.995Z,26.45
2022-08-17T19:21:27.818Z,26.32
2022-08-17T19:24:09.596Z,26.18
2022-08-17T19:26:54.393Z,26.21
2022-08-17T19:29:42.620Z,26.01
2022-08-17T19:32:15.653Z,26.00
2022-08-17T19:34:46.129Z,25.92
2022-08-17T19:37:31.427Z,25.85
2022-08-17T19:40:29.269Z,25.77
2022-08-17T19:43:14.863Z,25.68
2022-08-17T19:46:03.970Z,25.74
2022-08-17T19:48:50.192Z,25.61
2022-08-17T19:51:36.200Z,25.50
2022-08-17T19:54:15.009Z,25.38
2022-08-17T19:56:56.506Z,25.33
2022-08-17T19:59:51.165Z,25.24
2022-08-17T20:02:36.314Z,25.18
2022-08-17T20:05:11.366Z,25.13
2022-08-17T20:07:52.523Z,24.96
2022-08-17T20:10:36.399Z,24.93
2022-08-17T20:13:11.011Z,24.86
2022-08-17T20:15:43.433Z,24.92
2022-08-17T20:18:23.693Z,24.93
2022-08-17T20:21:01.651Z,25.00
2022-08-17T20:23:50.476Z,25.00
2022-08-17T20:26:27.264Z,25.00
2022-08-17T20:29:39.551Z,24.90
2022-08-17T20:32:25.151Z,24.79
2022-08-17T20:35:09.489Z,24.77
2022-08-17T20:37:44.118Z,24.67
2022-08-17T20:40:25.927Z,24.61
2022-08-17T20:42:55.141Z,24.48
2022-08-17T20:46:13.541Z,24.41
2022-08-17T20:48:47.344Z,24.28
2022-08-17T20:51:32.470Z,24.01
2022-08-17T20:54:34.795Z,24.03
2022-08-17T20:57:06.789Z,24.01
2022-08-17T21:00:14.401Z,24.06
2022-08-17T21:02:45.402Z,24.08
2022-08-17T21:06:00.073Z,24.12
2022-08-17T21:08:34.394Z,24.14
2022-08-17T21:12:02.968Z,24.05
2022-08-17T21:14:58.630Z,23.86
2022-08-17T21:17:44.451Z,23.64
2022-08-17T21:20:33.027Z,23.42
2022-08-17T21:23:25.171Z,23.35
2022-08-17T21:26:30.815Z,23.53
2022-08-17T21:29:29.738Z,23.36
2022-08-17T21:32:24.349Z,23.17
2022-08-17T21:35:31.036Z,23.23
2022-08-17T21:38:04.944Z,23.18
2022-08-17T21:40:35.377Z,23.17
2022-08-17T21:43:23.577Z,23.29
2022-08-17T21:46:25.033Z,23.40
2022-08-17T21:49:03.026Z,23.58
2022-08-17T21:51:45.315Z,23.79
2022-08-17T21:54:33.904Z,23.87
2022-08-17T21:57:05.567Z,24.02
2022-08-17T21:59:38.263Z,24.02
2022-08-17T22:02:10.428Z,24.12
2022-08-17T22:04:43.134Z,24.18
2022-08-17T22:07:14.944Z,24.26
2022-08-17T22:09:46.715Z,24.26
2022-08-17T22:12:20.736Z,24.19
2022-08-17T22:15:00.373Z,23.91
2022-08-17T22:17:35.857Z,23.89
2022-08-17T22:20:14.410Z,23.72
2022-08-17T22:23:30.624Z,23.38
2022-08-17T22:26:06.090Z,23.39
2022-08-17T22:28:43.868Z,23.41
2022-08-17T22:31:14.938Z,23.57
2022-08-17T22:33:48.103Z,23.70
2022-08-17T22:36:30.433Z,23.81
2022-08-17T22:39:03.224Z,23.86
2022-08-17T22:41:44.497Z,23.83
2022-08-17T22:44:27.691Z,23.70
2022-08-17T22:47:11.250Z,23.58
2022-08-17T22:49:54.222Z,23.63
2022-08-17T22:52:58.288Z,23.59
2022-08-17T22:55:59.372Z,23.58
2022-08-17T22:58:59.280Z,23.55
2022-08-17T23:01:31.547Z,23.50
2022-08-17T23:04:03.355Z,23.36
2022-08-17T23:06:33.872Z,23.41
2022-08-17T23:09:06.724Z,23.40
2022-08-17T23:11:49.920Z,23.35
2022-08-17T23:14:21.417Z,23.39
2022-08-17T23:16:51.168Z,23.49
2022-08-17T23:19:22.582Z,23.42
2022-08-17T23:21:52.612Z,23.35
2022-08-17T23:24:26.742Z,23.34
2022-08-17T23:26:58.139Z,23.39
2022-08-17T23:29:29.343Z,23.49
2022-08-17T23:32:01.277Z,23.55
2022-08-17T23:34:30.138Z,23.59
2022-08-17T23:37:02.112Z,23.62
2022-08-17T23:39:32.681Z,23.57
2022-08-17T23:42:07.876Z,23.62
2022-08-17T23:44:37.551Z,23.59
2022-08-17T23:47:07.792Z,23.71
2022-08-17T23:49:37.492Z,23.70
2022-08-17T23:52:09.958Z,23.55
2022-08-17T23:54:44.491Z,23.58
2022-08-17T23:57:16.473Z,23.47
2022-08-17T23:59:45.518Z,23.45
